Dades de l'estació automàtica Vinebre
Resum diari
21:30 TU| Temperatura mitjana | 16.9 °C | |
|---|---|---|
| Temperatura màxima | 22.1 °C | 9:20 TU |
| Temperatura mínima | 10.6 °C | 21:44 TU |
| Humitat relativa mitjana | 80% | |
| Precipitació acumulada | 3.1 mm | |
| Ratxa màxima del vent (10 m) | 35.6 km/h - 344º | 17:59 TU |
| Pressió atmosfèrica mitjana | 1012.2 hPa | |
| Irradiació solar global | 11.9 MJ/m2 | |
El tram horari està expressat en Temps Universal (TU). Cal sumar una hora en horari d'hivern i dues en horari d'estiu per passar a l'hora oficial.
Vinebre
| Municipi | Vinebre |
|---|---|
| Comarca | Ribera d'Ebre |
| Altitud | 51 m |
| Data alta | 22.01.1998 |
| Estat actual | Operativa |
| Període TU |
TM °C |
TX °C |
TN °C |
HRM % |
PPT mm |
VVM (10 m) km/h |
DVM (10 m) graus |
VVX (10 m) km/h |
PM hPa |
RS W/m2 |
|---|---|---|---|---|---|---|---|---|---|---|
| 00:00 - 00:30 | 14.7 | 14.8 | 14.6 | 83 | 0.0 | 10.1 | 164 | 16.2 | 1013.8 | 0 |
| 00:30 - 01:00 | 14.7 | 14.8 | 14.6 | 80 | 0.0 | 9.7 | 163 | 15.5 | 1013.5 | 0 |
| 01:00 - 01:30 | 15.1 | 15.2 | 14.8 | 74 | 0.0 | 9.0 | 173 | 15.1 | 1013.3 | 0 |
| 01:30 - 02:00 | 15.2 | 15.4 | 15.1 | 76 | 0.0 | 4.7 | 175 | 11.2 | 1013.4 | 0 |
| 02:00 - 02:30 | 15.2 | 15.2 | 15.1 | 78 | 0.0 | 2.9 | 174 | 5.4 | 1013.3 | 0 |
| 02:30 - 03:00 | 14.8 | 15.1 | 14.5 | 81 | 0.0 | 5.0 | 146 | 8.6 | 1013.0 | 0 |
| 03:00 - 03:30 | 14.7 | 15.2 | 14.5 | 82 | 0.0 | 3.6 | 198 | 7.9 | 1012.8 | 0 |
| 03:30 - 04:00 | 14.8 | 15.1 | 14.6 | 82 | 0.0 | 4.3 | 170 | 9.0 | 1012.7 | 0 |
| 04:00 - 04:30 | 14.8 | 15.0 | 14.5 | 81 | 0.0 | 5.4 | 176 | 11.5 | 1012.6 | 0 |
| 04:30 - 05:00 | 14.4 | 14.6 | 14.3 | 83 | 0.0 | 6.1 | 162 | 12.6 | 1012.5 | 1 |
| 05:00 - 05:30 | 14.8 | 15.3 | 14.4 | 83 | 0.0 | 6.5 | 173 | 14.0 | 1012.5 | 42 |
| 05:30 - 06:00 | 15.6 | 15.6 | 15.4 | 81 | 0.0 | 6.8 | 167 | 11.9 | 1012.7 | 70 |
| 06:00 - 06:30 | 15.8 | 15.9 | 15.7 | 80 | 0.0 | 5.8 | 173 | 11.5 | 1012.8 | 69 |
| 06:30 - 07:00 | 16.5 | 16.8 | 16.0 | 77 | 0.0 | 4.3 | 177 | 7.9 | 1012.8 | 139 |
| 07:00 - 07:30 | 17.3 | 18.2 | 16.8 | 73 | 0.0 | 6.5 | 176 | 10.8 | 1012.9 | 217 |
| 07:30 - 08:00 | 18.7 | 19.5 | 18.1 | 68 | 0.0 | 8.6 | 156 | 13.3 | 1012.7 | 380 |
| 08:00 - 08:30 | 19.5 | 19.9 | 19.3 | 67 | 0.0 | 8.3 | 143 | 14.8 | 1012.5 | 328 |
| 08:30 - 09:00 | 19.3 | 19.6 | 19.1 | 68 | 0.0 | 7.6 | 153 | 14.8 | 1012.5 | 290 |
| 09:00 - 09:30 | 20.5 | 22.1 | 19.2 | 64 | 0.0 | 6.5 | 148 | 12.6 | 1012.4 | 652 |
| 09:30 - 10:00 | 21.2 | 22.1 | 20.5 | 59 | 0.0 | 3.2 | 193 | 11.2 | 1012.2 | 618 |
| 10:00 - 10:30 | 21.4 | 22.1 | 21.2 | 60 | 0.0 | 2.5 | 7 | 6.5 | 1012.0 | 455 |
| 10:30 - 11:00 | 21.2 | 21.6 | 20.6 | 61 | 0.0 | 1.1 | 67 | 5.0 | 1011.8 | 202 |
| 11:00 - 11:30 | 20.5 | 20.8 | 20.3 | 68 | 0.1 | 1.4 | 46 | 4.3 | 1011.7 | 179 |
| 11:30 - 12:00 | 20.0 | 20.3 | 19.8 | 78 | 0.1 | 1.8 | 146 | 4.7 | 1011.8 | 149 |
| 12:00 - 12:30 | 19.1 | 20.0 | 18.5 | 83 | 1.0 | 3.6 | 173 | 9.4 | 1011.7 | 98 |
| 12:30 - 13:00 | 18.5 | 18.6 | 18.4 | 92 | 0.1 | 1.4 | 269 | 5.8 | 1011.2 | 180 |
| 13:00 - 13:30 | 19.3 | 20.4 | 18.5 | 85 | 0.1 | 4.7 | 193 | 10.4 | 1011.0 | 498 |
| 13:30 - 14:00 | 21.2 | 22.0 | 20.2 | 79 | 0.0 | 11.5 | 156 | 20.5 | 1010.5 | 749 |
| 14:00 - 14:30 | 20.3 | 20.8 | 20.0 | 76 | 0.0 | 10.8 | 175 | 19.1 | 1010.5 | 315 |
| 14:30 - 15:00 | 19.9 | 20.0 | 19.9 | 76 | 0.0 | 9.7 | 167 | 18.7 | 1010.3 | 260 |
| 15:00 - 15:30 | 19.9 | 20.1 | 19.7 | 73 | 0.0 | 9.7 | 184 | 17.3 | 1010.2 | 285 |
| 15:30 - 16:00 | 19.9 | 20.1 | 19.6 | 69 | 0.0 | 6.1 | 175 | 11.2 | 1010.2 | 146 |
| 16:00 - 16:30 | 19.3 | 19.6 | 18.7 | 76 | 0.0 | 6.8 | 191 | 16.6 | 1010.7 | 37 |
| 16:30 - 17:00 | 18.0 | 18.7 | 17.6 | 92 | 1.0 | 5.8 | 211 | 15.1 | 1011.2 | 31 |
| 17:00 - 17:30 | 17.1 | 17.6 | 16.8 | 94 | 0.7 | 5.8 | 213 | 15.1 | 1010.9 | 61 |
| 17:30 - 18:00 | 17.0 | 17.3 | 16.8 | 94 | 0.0 | 5.8 | 39 | 35.6 | 1010.9 | 111 |
| 18:00 - 18:30 | 15.5 | 16.9 | 14.6 | 82 | 0.0 | 13.3 | 357 | 33.8 | 1012.4 | 74 |
| 18:30 - 19:00 | 14.4 | 14.6 | 13.9 | 87 | 0.0 | 3.2 | 27 | 7.9 | 1012.5 | 14 |
| 19:00 - 19:30 | 13.6 | 13.9 | 13.3 | 93 | 0.0 | 4.0 | 327 | 11.2 | 1012.4 | 0 |
| 19:30 - 20:00 | 12.9 | 13.4 | 12.2 | 96 | 0.0 | 3.6 | 266 | 9.0 | 1012.7 | 0 |
| 20:00 - 20:30 | 12.1 | 12.2 | 11.8 | 100 | 0.0 | 1.4 | 61 | 3.2 | 1013.0 | 0 |
| 20:30 - 21:00 | 11.7 | 11.9 | 11.3 | 100 | 0.0 | 2.9 | 54 | 6.8 | 1013.3 | 0 |
| 21:00 - 21:30 | 11.2 | 11.3 | 11.0 | 100 | 0.0 | 3.6 | 43 | 7.2 | 1013.6 | 0 |
| 21:30 - 22:00 | 10.7 | 10.9 | 10.6 | 100 | 0.0 | 2.5 | 65 | 6.5 | 1013.8 | 0 |
Les dades en taronja només han passat un control de qualitat automàtic. Resta pendent la seva validació definitiva.